createdAt,value
2023-05-14T00:02:20.434Z,16.40
2023-05-14T00:05:06.071Z,16.40
2023-05-14T00:07:51.509Z,16.40
2023-05-14T00:10:37.236Z,16.40
2023-05-14T00:13:22.850Z,16.40
2023-05-14T00:16:08.437Z,16.30
2023-05-14T00:18:54.074Z,16.20
2023-05-14T00:21:39.683Z,16.10
2023-05-14T00:24:25.402Z,16.00
2023-05-14T00:27:11.530Z,16.00
2023-05-14T00:29:58.736Z,16.10
2023-05-14T00:32:44.408Z,16.10
2023-05-14T00:35:29.843Z,16.00
2023-05-14T00:38:17.092Z,16.00
2023-05-14T00:41:02.827Z,15.90
2023-05-14T00:43:48.236Z,16.00
2023-05-14T00:46:33.925Z,15.90
2023-05-14T00:49:19.443Z,15.90
2023-05-14T00:52:05.127Z,15.90
2023-05-14T00:54:50.481Z,15.90
2023-05-14T00:57:36.453Z,15.90
2023-05-14T01:00:22.255Z,15.90
2023-05-14T01:03:08.564Z,15.80
2023-05-14T01:06:01.543Z,15.70
2023-05-14T01:08:53.634Z,15.70
2023-05-14T01:11:59.850Z,15.70
2023-05-14T01:15:07.067Z,15.60
2023-05-14T01:17:55.621Z,15.50
2023-05-14T01:20:40.966Z,15.40
2023-05-14T01:23:26.616Z,15.30
2023-05-14T01:26:12.302Z,15.30
2023-05-14T01:29:03.993Z,15.30
2023-05-14T01:31:50.881Z,15.30
2023-05-14T01:34:36.829Z,15.20
2023-05-14T01:37:22.616Z,15.10
2023-05-14T01:40:09.682Z,15.10
2023-05-14T01:42:56.510Z,15.10
2023-05-14T01:45:42.615Z,15.00
2023-05-14T01:48:29.951Z,15.00
2023-05-14T01:51:15.387Z,14.90
2023-05-14T01:54:00.823Z,14.90
2023-05-14T01:56:46.149Z,14.90
2023-05-14T01:59:31.839Z,14.80
2023-05-14T02:02:17.358Z,14.70
2023-05-14T02:05:03.910Z,14.80
2023-05-14T02:07:51.375Z,14.70
2023-05-14T02:10:36.717Z,14.70
2023-05-14T02:13:22.448Z,14.60
2023-05-14T02:16:08.296Z,14.60
2023-05-14T02:18:53.529Z,14.60
2023-05-14T02:21:39.087Z,14.50
2023-05-14T02:24:24.663Z,14.50
2023-05-14T02:27:12.702Z,14.40
2023-05-14T02:30:00.840Z,14.30
2023-05-14T02:32:46.523Z,14.30
2023-05-14T02:35:32.076Z,14.40
2023-05-14T02:38:18.726Z,14.20
2023-05-14T02:41:04.377Z,14.20
2023-05-14T02:43:57.911Z,14.20
2023-05-14T02:46:44.099Z,14.00
2023-05-14T02:49:29.474Z,13.90
2023-05-14T02:52:15.008Z,13.90
2023-05-14T02:55:00.788Z,13.90
2023-05-14T02:57:46.721Z,13.90
2023-05-14T03:00:32.417Z,13.90
2023-05-14T03:03:19.192Z,14.00
2023-05-14T03:06:05.450Z,14.00
2023-05-14T03:08:50.753Z,14.00
2023-05-14T03:11:36.511Z,14.00
2023-05-14T03:14:22.082Z,13.90
2023-05-14T03:17:07.735Z,13.80
2023-05-14T03:19:53.261Z,13.70
2023-05-14T03:22:38.834Z,13.90
2023-05-14T03:25:24.489Z,13.70
2023-05-14T03:28:10.089Z,13.70
2023-05-14T03:30:55.809Z,13.60
2023-05-14T03:33:41.487Z,13.50
2023-05-14T03:36:27.050Z,13.60
2023-05-14T03:39:15.506Z,13.60
2023-05-14T03:42:00.956Z,13.60
2023-05-14T03:44:46.317Z,13.40
2023-05-14T03:47:32.067Z,13.30
2023-05-14T03:50:19.215Z,13.50
2023-05-14T03:53:04.951Z,13.40
2023-05-14T03:55:50.789Z,13.50
2023-05-14T03:58:36.040Z,13.40
2023-05-14T04:01:21.939Z,13.50
2023-05-14T04:04:07.367Z,13.50
2023-05-14T04:06:53.806Z,13.60
2023-05-14T04:09:39.454Z,13.60
2023-05-14T04:12:26.709Z,13.60
2023-05-14T04:15:12.816Z,13.60
2023-05-14T04:17:58.307Z,13.60
2023-05-14T04:20:43.903Z,13.70
2023-05-14T04:23:29.432Z,13.70
2023-05-14T04:26:14.870Z,13.80
2023-05-14T04:29:02.972Z,13.70
2023-05-14T04:31:51.722Z,13.70
2023-05-14T04:34:37.195Z,13.60
2023-05-14T04:37:23.044Z,13.60
2023-05-14T04:40:09.055Z,16.70
2023-05-14T04:42:54.570Z,13.50
2023-05-14T04:45:41.135Z,13.60
2023-05-14T04:48:26.889Z,13.70
2023-05-14T04:51:12.551Z,13.70
2023-05-14T04:53:58.414Z,13.60
2023-05-14T04:56:43.842Z,13.60
2023-05-14T04:59:30.136Z,12.00
2023-05-14T05:02:15.506Z,12.20
2023-05-14T05:05:01.316Z,13.60
2023-05-14T05:07:46.721Z,13.70
2023-05-14T05:10:32.258Z,13.70
2023-05-14T05:13:17.805Z,13.80
2023-05-14T05:16:03.768Z,13.90
2023-05-14T05:18:49.196Z,13.90
2023-05-14T05:21:35.266Z,14.00
2023-05-14T05:24:20.948Z,14.10
2023-05-14T05:27:06.484Z,14.10
2023-05-14T05:29:52.381Z,14.20
2023-05-14T05:32:37.969Z,14.20
2023-05-14T05:35:23.628Z,14.20
2023-05-14T05:38:09.283Z,14.20
2023-05-14T05:40:54.960Z,14.30
2023-05-14T05:43:40.872Z,14.40
2023-05-14T05:46:26.509Z,14.60
2023-05-14T05:49:12.162Z,14.60
2023-05-14T05:51:57.903Z,14.60
2023-05-14T05:54:43.440Z,14.70
2023-05-14T05:57:29.124Z,14.80
2023-05-14T06:00:15.283Z,14.80
2023-05-14T06:03:01.095Z,14.90
2023-05-14T06:05:46.842Z,15.00
2023-05-14T06:08:32.625Z,15.20
2023-05-14T06:11:18.285Z,15.30
2023-05-14T06:14:04.629Z,15.40
2023-05-14T06:16:49.980Z,15.50
2023-05-14T06:19:35.686Z,15.50
2023-05-14T06:22:21.243Z,15.60
2023-05-14T06:25:07.242Z,15.70
2023-05-14T06:27:52.502Z,15.80
2023-05-14T06:30:38.227Z,15.80
2023-05-14T06:33:30.742Z,16.00
2023-05-14T06:36:16.254Z,16.00
2023-05-14T06:39:01.881Z,16.00
2023-05-14T06:41:47.610Z,16.10
2023-05-14T06:44:34.050Z,16.10
2023-05-14T06:47:19.831Z,16.20
2023-05-14T06:50:05.800Z,16.20
2023-05-14T06:52:51.040Z,16.30
2023-05-14T06:55:36.879Z,16.30
2023-05-14T06:58:22.537Z,16.40
2023-05-14T07:01:08.199Z,16.40
2023-05-14T07:03:53.852Z,16.40
2023-05-14T07:06:40.105Z,16.50
2023-05-14T07:09:25.663Z,16.50
2023-05-14T07:12:11.352Z,16.60
2023-05-14T07:14:57.665Z,16.50
2023-05-14T07:17:43.199Z,16.50
2023-05-14T07:20:28.735Z,16.50
2023-05-14T07:23:14.286Z,16.50
2023-05-14T07:25:59.848Z,16.50
2023-05-14T07:28:45.280Z,16.60
2023-05-14T07:31:30.967Z,16.60
2023-05-14T07:34:16.808Z,16.70
2023-05-14T07:37:02.610Z,16.70
2023-05-14T07:39:48.449Z,16.80
2023-05-14T07:42:36.377Z,16.90
2023-05-14T07:45:22.961Z,17.00
2023-05-14T07:48:08.923Z,17.10
2023-05-14T07:50:54.279Z,17.30
2023-05-14T07:53:39.927Z,17.30
2023-05-14T07:56:25.784Z,17.50
2023-05-14T07:59:11.129Z,17.50
2023-05-14T08:01:56.785Z,17.60
2023-05-14T08:04:42.340Z,17.70
2023-05-14T08:07:30.083Z,17.80
2023-05-14T08:10:15.686Z,17.80
2023-05-14T08:13:01.324Z,17.90
2023-05-14T08:15:47.354Z,18.00
2023-05-14T08:18:32.743Z,18.00
2023-05-14T08:21:18.298Z,18.10
2023-05-14T08:24:04.086Z,18.20
2023-05-14T08:26:49.365Z,18.30
2023-05-14T08:29:35.175Z,18.30
2023-05-14T08:32:23.766Z,18.30
2023-05-14T08:35:09.811Z,18.40
2023-05-14T08:37:56.953Z,18.40
2023-05-14T08:40:42.522Z,18.50
2023-05-14T08:43:30.996Z,18.50
2023-05-14T08:46:17.524Z,18.60
2023-05-14T08:49:08.942Z,18.60
2023-05-14T08:51:54.193Z,18.70
2023-05-14T08:54:40.404Z,18.70
2023-05-14T08:57:26.613Z,18.70
2023-05-14T09:00:12.593Z,18.80
2023-05-14T09:02:59.070Z,18.80
2023-05-14T09:05:45.734Z,18.80
2023-05-14T09:08:31.417Z,18.90
2023-05-14T09:11:16.841Z,18.90
2023-05-14T09:14:02.581Z,19.00
2023-05-14T09:16:49.674Z,19.00
2023-05-14T09:19:35.111Z,19.00
2023-05-14T09:22:20.870Z,19.10
2023-05-14T09:25:07.386Z,19.10
2023-05-14T09:27:55.360Z,19.20
2023-05-14T09:30:42.024Z,19.20
2023-05-14T09:33:28.423Z,19.30
2023-05-14T09:36:13.853Z,19.40
2023-05-14T09:39:00.330Z,19.40
2023-05-14T09:41:46.575Z,19.40
2023-05-14T09:44:32.572Z,19.50
2023-05-14T09:47:18.078Z,19.60
2023-05-14T09:50:04.194Z,19.60
2023-05-14T09:52:49.957Z,19.70
2023-05-14T09:55:36.538Z,19.80
2023-05-14T09:58:22.258Z,19.80
2023-05-14T10:01:08.331Z,19.80
2023-05-14T10:03:54.973Z,19.90
2023-05-14T10:06:42.518Z,20.00
2023-05-14T10:09:29.811Z,20.00
2023-05-14T10:12:16.625Z,20.10
2023-05-14T10:15:04.858Z,20.10
2023-05-14T10:17:53.565Z,20.10
2023-05-14T10:20:41.045Z,20.20
2023-05-14T10:23:26.733Z,20.20
2023-05-14T10:26:12.490Z,20.30
2023-05-14T10:28:58.559Z,20.30
2023-05-14T10:31:50.638Z,20.40
2023-05-14T10:34:46.408Z,20.50
2023-05-14T10:37:32.767Z,20.60
2023-05-14T10:40:19.324Z,20.70
2023-05-14T10:43:05.651Z,20.70
2023-05-14T10:45:51.917Z,20.80
2023-05-14T10:48:37.980Z,20.90
2023-05-14T10:51:23.400Z,21.00
2023-05-14T10:54:08.938Z,21.00
2023-05-14T10:56:58.406Z,21.10
2023-05-14T10:59:43.695Z,21.20
2023-05-14T11:02:33.732Z,21.20
2023-05-14T11:05:19.200Z,21.20
2023-05-14T11:08:06.414Z,21.30
2023-05-14T11:10:52.257Z,21.30
2023-05-14T11:13:38.475Z,21.30
2023-05-14T11:16:26.376Z,21.30
2023-05-14T11:19:12.146Z,21.40
2023-05-14T11:21:57.814Z,21.40
2023-05-14T11:24:43.359Z,21.50
2023-05-14T11:27:29.593Z,21.50
2023-05-14T11:30:16.244Z,21.60
2023-05-14T11:33:02.287Z,21.60
2023-05-14T11:35:48.479Z,21.70
2023-05-14T11:38:33.923Z,21.70
2023-05-14T11:41:21.630Z,21.70
2023-05-14T11:44:09.042Z,21.80
2023-05-14T11:46:55.594Z,21.80
2023-05-14T11:49:41.065Z,21.90
2023-05-14T11:52:26.513Z,21.90
2023-05-14T11:55:12.697Z,21.90
2023-05-14T11:57:58.102Z,21.80
2023-05-14T12:00:44.718Z,21.90
2023-05-14T12:03:30.955Z,21.90
2023-05-14T12:06:16.433Z,21.90
2023-05-14T12:09:04.720Z,21.90
2023-05-14T12:11:51.190Z,21.90
2023-05-14T12:14:41.706Z,21.90
2023-05-14T12:17:27.216Z,22.00
2023-05-14T12:20:12.860Z,22.10
2023-05-14T12:22:58.138Z,22.10
2023-05-14T12:25:51.377Z,22.10
2023-05-14T12:28:39.014Z,22.10
2023-05-14T12:31:31.044Z,22.10
2023-05-14T12:34:17.040Z,22.10
2023-05-14T12:37:03.014Z,22.00
2023-05-14T12:39:48.559Z,22.00
2023-05-14T12:42:33.745Z,22.00
2023-05-14T12:45:19.524Z,21.90
2023-05-14T12:48:05.148Z,21.90
2023-05-14T12:50:50.348Z,21.90
2023-05-14T12:53:35.942Z,21.80
2023-05-14T12:56:22.007Z,21.80
2023-05-14T12:59:09.455Z,21.80
2023-05-14T13:01:54.778Z,21.80
2023-05-14T13:04:41.458Z,21.80
2023-05-14T13:07:27.053Z,21.80
2023-05-14T13:10:12.785Z,21.80
2023-05-14T13:12:58.258Z,21.90
2023-05-14T13:15:46.677Z,22.00
2023-05-14T13:18:32.276Z,22.00
2023-05-14T13:21:17.938Z,22.10
2023-05-14T13:24:03.688Z,22.10
2023-05-14T13:26:49.065Z,22.10
2023-05-14T13:29:34.789Z,22.20
2023-05-14T13:32:20.563Z,22.20
2023-05-14T13:35:07.763Z,22.20
2023-05-14T13:37:53.112Z,22.20
2023-05-14T13:40:38.720Z,22.40
2023-05-14T13:43:24.482Z,22.50
2023-05-14T13:46:10.084Z,22.60
2023-05-14T13:48:55.957Z,22.70
2023-05-14T13:51:41.610Z,22.70
2023-05-14T13:54:27.044Z,22.80
2023-05-14T13:57:12.710Z,22.70
2023-05-14T13:59:58.500Z,22.70
2023-05-14T14:02:44.164Z,22.70
2023-05-14T14:05:30.057Z,22.70
2023-05-14T14:08:23.559Z,22.60
2023-05-14T14:11:09.863Z,22.60
2023-05-14T14:13:55.494Z,22.50
2023-05-14T14:16:41.166Z,22.50
2023-05-14T14:19:26.704Z,22.50
2023-05-14T14:22:14.034Z,22.50
2023-05-14T14:24:59.418Z,22.60
2023-05-14T14:27:47.363Z,22.70
2023-05-14T14:30:33.128Z,23.10
2023-05-14T14:33:18.499Z,23.40
2023-05-14T14:36:04.254Z,23.70
2023-05-14T14:38:49.589Z,23.80
2023-05-14T14:41:35.182Z,23.80
2023-05-14T14:44:21.098Z,23.70
2023-05-14T14:47:06.820Z,23.60
2023-05-14T14:49:52.600Z,23.50
2023-05-14T14:52:39.180Z,23.40
2023-05-14T14:55:24.783Z,23.60
2023-05-14T14:58:10.070Z,23.90
2023-05-14T15:00:56.643Z,24.20
2023-05-14T15:03:42.736Z,24.60
2023-05-14T15:06:28.164Z,24.90
2023-05-14T15:09:13.573Z,25.10
2023-05-14T15:11:59.374Z,25.20
2023-05-14T15:14:45.250Z,25.40
2023-05-14T15:17:31.041Z,25.40
2023-05-14T15:20:16.754Z,25.50
2023-05-14T15:23:02.731Z,25.40
2023-05-14T15:25:49.439Z,25.40
2023-05-14T15:28:35.170Z,25.20
2023-05-14T15:31:21.052Z,24.90
2023-05-14T15:34:07.060Z,24.60
2023-05-14T15:36:52.870Z,24.40
2023-05-14T15:39:38.523Z,24.10
2023-05-14T15:42:24.039Z,23.80
2023-05-14T15:45:10.615Z,23.60
2023-05-14T15:47:56.159Z,23.40
2023-05-14T15:50:42.271Z,23.30
2023-05-14T15:53:28.014Z,23.10
2023-05-14T15:56:13.409Z,23.00
2023-05-14T15:58:59.112Z,22.90
2023-05-14T16:01:44.789Z,22.90
2023-05-14T16:04:30.597Z,22.80
2023-05-14T16:07:16.113Z,22.70
2023-05-14T16:10:01.483Z,22.70
2023-05-14T16:12:47.138Z,22.60
2023-05-14T16:15:32.934Z,22.60
2023-05-14T16:18:18.314Z,22.60
2023-05-14T16:21:04.057Z,22.60
2023-05-14T16:23:49.725Z,22.60
2023-05-14T16:26:35.356Z,22.60
2023-05-14T16:29:20.960Z,22.60
2023-05-14T16:32:06.841Z,22.60
2023-05-14T16:34:52.589Z,22.60
2023-05-14T16:37:38.228Z,22.60
2023-05-14T16:40:24.294Z,22.60
2023-05-14T16:43:09.947Z,22.60
2023-05-14T16:45:55.889Z,22.70
2023-05-14T16:48:42.435Z,22.70
2023-05-14T16:51:28.619Z,22.60
2023-05-14T16:54:14.403Z,22.70
2023-05-14T16:56:59.608Z,22.60
2023-05-14T16:59:45.546Z,22.60
2023-05-14T17:02:31.145Z,22.60
2023-05-14T17:05:16.886Z,22.60
2023-05-14T17:08:02.466Z,22.60
2023-05-14T17:10:48.145Z,22.60
2023-05-14T17:13:34.081Z,22.60
2023-05-14T17:16:22.022Z,22.60
2023-05-14T17:19:07.503Z,22.60
2023-05-14T17:21:53.200Z,22.60
2023-05-14T17:24:39.145Z,22.60
2023-05-14T17:27:24.547Z,22.60
2023-05-14T17:30:10.470Z,22.50
2023-05-14T17:32:56.392Z,22.50
2023-05-14T17:35:43.864Z,22.50
2023-05-14T17:38:29.797Z,22.50
2023-05-14T17:41:15.210Z,22.40
2023-05-14T17:44:00.653Z,22.40
2023-05-14T17:46:46.447Z,22.40
2023-05-14T17:49:31.705Z,22.40
2023-05-14T17:52:17.453Z,22.30
2023-05-14T17:55:03.110Z,22.30
2023-05-14T17:57:48.619Z,22.30
2023-05-14T18:00:34.334Z,22.30
2023-05-14T18:03:20.541Z,22.30
2023-05-14T18:06:06.219Z,22.20
2023-05-14T18:08:51.570Z,22.30
2023-05-14T18:11:36.906Z,22.30
2023-05-14T18:14:22.663Z,22.20
2023-05-14T18:17:08.417Z,22.30
2023-05-14T18:19:54.148Z,22.20
2023-05-14T18:22:39.778Z,22.20
2023-05-14T18:25:25.893Z,22.20
2023-05-14T18:28:11.664Z,22.00
2023-05-14T18:30:57.149Z,21.70
2023-05-14T18:33:43.093Z,21.60
2023-05-14T18:36:28.578Z,21.40
2023-05-14T18:39:14.218Z,21.20
2023-05-14T18:41:59.974Z,21.10
2023-05-14T18:44:45.358Z,21.10
2023-05-14T18:47:30.838Z,21.00
2023-05-14T18:50:16.387Z,20.90
2023-05-14T18:53:02.272Z,20.80
2023-05-14T18:55:47.759Z,20.70
2023-05-14T18:58:33.618Z,20.50
2023-05-14T19:01:18.893Z,20.30
2023-05-14T19:04:06.161Z,20.30
2023-05-14T19:06:52.235Z,20.20
2023-05-14T19:09:37.740Z,20.10
2023-05-14T19:12:23.660Z,20.00
2023-05-14T19:15:09.316Z,19.80
2023-05-14T19:17:54.703Z,19.70
2023-05-14T19:20:40.426Z,19.60
2023-05-14T19:23:26.111Z,19.60
2023-05-14T19:26:11.570Z,19.50
2023-05-14T19:28:58.712Z,19.40
2023-05-14T19:31:44.436Z,19.40
2023-05-14T19:34:30.441Z,19.30
2023-05-14T19:37:16.181Z,19.30
2023-05-14T19:40:01.850Z,19.20
2023-05-14T19:42:47.603Z,19.20
2023-05-14T19:45:38.853Z,19.20
2023-05-14T19:48:24.610Z,19.10
2023-05-14T19:51:10.978Z,19.10
2023-05-14T19:53:56.310Z,19.00
2023-05-14T19:56:42.104Z,18.90
2023-05-14T19:59:29.482Z,18.90
2023-05-14T20:02:18.247Z,18.80
2023-05-14T20:05:06.802Z,18.80
2023-05-14T20:07:54.550Z,18.80
2023-05-14T20:10:39.990Z,18.70
2023-05-14T20:13:25.535Z,18.60
2023-05-14T20:16:11.469Z,18.60
2023-05-14T20:18:57.276Z,18.60
2023-05-14T20:21:42.917Z,18.50
2023-05-14T20:24:28.585Z,18.50
2023-05-14T20:27:14.007Z,18.50
2023-05-14T20:29:59.651Z,18.40
2023-05-14T20:32:45.648Z,18.40
2023-05-14T20:35:31.174Z,18.30
2023-05-14T20:38:18.463Z,18.30
2023-05-14T20:41:04.028Z,18.20
2023-05-14T20:43:49.571Z,18.20
2023-05-14T20:46:35.333Z,18.20
2023-05-14T20:49:21.126Z,18.10
2023-05-14T20:52:06.583Z,18.00
2023-05-14T20:54:52.128Z,18.00
2023-05-14T20:57:37.402Z,18.00
2023-05-14T21:00:23.241Z,17.90
2023-05-14T21:03:08.823Z,17.90
2023-05-14T21:05:56.050Z,17.80
2023-05-14T21:08:41.551Z,17.80
2023-05-14T21:11:27.187Z,17.70
2023-05-14T21:14:12.864Z,17.70
2023-05-14T21:16:58.543Z,17.80
2023-05-14T21:19:44.243Z,17.70
2023-05-14T21:22:29.969Z,17.70
2023-05-14T21:25:15.886Z,17.70
2023-05-14T21:28:01.334Z,17.70
2023-05-14T21:30:47.139Z,17.60
2023-05-14T21:33:32.997Z,17.60
2023-05-14T21:36:18.458Z,17.60
2023-05-14T21:39:04.204Z,17.60
2023-05-14T21:41:49.999Z,17.50
2023-05-14T21:44:35.638Z,17.50
2023-05-14T21:47:21.293Z,17.50
2023-05-14T21:50:07.322Z,17.50
2023-05-14T21:52:52.978Z,17.50
2023-05-14T21:55:38.496Z,17.40
2023-05-14T21:58:24.151Z,17.40
2023-05-14T22:01:11.498Z,17.40
2023-05-14T22:03:57.976Z,17.30
2023-05-14T22:06:43.822Z,17.30
2023-05-14T22:09:30.420Z,17.20
2023-05-14T22:12:16.053Z,17.10
2023-05-14T22:15:01.815Z,17.10
2023-05-14T22:17:47.650Z,17.10
2023-05-14T22:20:33.058Z,17.20
2023-05-14T22:23:18.652Z,17.00
2023-05-14T22:26:04.669Z,16.90
2023-05-14T22:28:50.568Z,16.80
2023-05-14T22:31:35.993Z,16.80
2023-05-14T22:34:21.659Z,16.80
2023-05-14T22:37:07.927Z,16.80
2023-05-14T22:39:53.269Z,16.70
2023-05-14T22:42:39.059Z,16.70
2023-05-14T22:45:24.651Z,16.60
2023-05-14T22:48:10.109Z,16.60
2023-05-14T22:50:55.861Z,16.60
2023-05-14T22:53:41.526Z,16.50
2023-05-14T22:56:26.996Z,16.50
2023-05-14T22:59:12.777Z,16.50
2023-05-14T23:01:58.260Z,16.40
2023-05-14T23:04:43.956Z,16.40
2023-05-14T23:07:29.327Z,16.40
2023-05-14T23:10:15.109Z,16.30
2023-05-14T23:13:00.677Z,16.30
2023-05-14T23:15:46.326Z,16.30
2023-05-14T23:18:32.384Z,16.20
2023-05-14T23:21:18.332Z,16.10
2023-05-14T23:24:03.919Z,16.20
2023-05-14T23:26:49.452Z,16.20
2023-05-14T23:29:35.613Z,16.00
2023-05-14T23:32:21.363Z,16.00
2023-05-14T23:35:07.277Z,16.00
2023-05-14T23:37:52.671Z,15.90
2023-05-14T23:40:37.969Z,15.80
2023-05-14T23:43:23.789Z,15.90
2023-05-14T23:46:09.614Z,15.90
2023-05-14T23:48:57.125Z,15.80
2023-05-14T23:51:42.784Z,15.60
2023-05-14T23:54:28.608Z,15.60
2023-05-14T23:57:15.293Z,15.70
